Time;durP1;ratioP1;P1;durP2;ratioP2;P2;SDS_P1;SDS_P2;PMS_P1;PMS_P2;Temp;Humidity;BMP_temperature;BMP_pressure;BME280_temperature;BME280_humidity;BME280_pressure;Samples;Min_cycle;Max_cycle;Signal;HPM_P1;HPM_P2
2022/02/09 00:04:59;;;;;;;30.73;15.38;;;;;;;4.53;100.00;101835.13;5076214;28;20396;-73
2022/02/09 00:07:37;;;;;;;24.83;14.23;;;;;;;4.57;100.00;101839.09;5055408;28;20032;-72
2022/02/09 00:10:03;;;;;;;26.17;15.18;;;;;;;4.60;100.00;101836.75;5062220;28;20032;-72
2022/02/09 00:12:39;;;;;;;25.75;15.13;;;;;;;4.63;100.00;101827.22;5058096;28;20035;-72
2022/02/09 00:17:39;;;;;;;24.95;13.73;;;;;;;4.69;100.00;101838.16;5079726;28;20047;-72
2022/02/09 00:23:16;;;;;;;23.13;13.30;;;;;;;4.74;100.00;101836.69;5075834;28;20575;-72
2022/02/09 00:33:56;;;;;;;22.58;13.77;;;;;;;4.82;100.00;101820.72;5077323;28;20092;-73
2022/02/09 00:44:48;;;;;;;22.85;13.98;;;;;;;4.89;100.00;101820.66;5090140;28;20036;-73
2022/02/09 01:11:49;;;;;;;19.75;12.00;;;;;;;5.06;100.00;101799.75;5085254;28;20154;-73
2022/02/09 01:39:03;;;;;;;20.80;11.82;;;;;;;5.16;100.00;101788.25;5070472;28;20016;-73
2022/02/09 01:57:37;;;;;;;19.73;11.93;;;;;;;5.20;100.00;101786.69;5088992;28;20036;-72
2022/02/09 02:00:05;;;;;;;24.67;13.85;;;;;;;5.22;100.00;101797.50;5087454;28;20625;-73
2022/02/09 02:02:30;;;;;;;23.95;13.80;;;;;;;5.22;100.00;101786.47;5093331;28;20033;-72
2022/02/09 02:04:55;;;;;;;22.95;12.63;;;;;;;5.22;100.00;101783.72;5093889;28;20035;-72
2022/02/09 02:10:09;;;;;;;29.23;14.63;;;;;;;5.25;100.00;101786.03;5072695;28;20039;-72
2022/02/09 02:12:51;;;;;;;25.17;14.10;;;;;;;5.27;100.00;101789.41;5069026;28;20552;-73
2022/02/09 02:16:16;;;;;;;23.52;13.25;;;;;;;5.25;100.00;101791.53;5091453;28;20074;-73
2022/02/09 02:18:05;;;;;;;22.65;13.13;;;;;;;5.25;100.00;101795.13;5074883;28;20031;-73
2022/02/09 02:21:05;;;;;;;26.48;14.32;;;;;;;5.26;100.00;101790.47;5067488;28;20036;-73
2022/02/09 02:26:08;;;;;;;24.02;14.00;;;;;;;5.29;100.00;101782.59;5066322;28;20036;-73
2022/02/09 02:42:40;;;;;;;29.27;15.00;;;;;;;5.29;100.00;101771.59;5001036;28;20033;-72
2022/02/09 03:14:04;;;;;;;30.70;16.00;;;;;;;5.34;100.00;101741.41;5077639;28;20028;-72
2022/02/09 03:16:36;;;;;;;26.48;15.02;;;;;;;5.35;100.00;101739.53;5065315;28;20047;-73
2022/02/09 03:19:27;;;;;;;23.83;14.90;;;;;;;5.33;100.00;101736.97;5068471;28;20516;-73
2022/02/09 03:22:11;;;;;;;27.25;14.50;;;;;;;5.37;100.00;101742.88;5086869;28;20032;-73
2022/02/09 03:52:02;;;;;;;36.92;17.70;;;;;;;5.24;100.00;101696.22;5101530;28;20032;-73
2022/02/09 03:56:55;;;;;;;28.10;16.58;;;;;;;5.26;100.00;101691.28;5088582;27;20383;-72
2022/02/09 03:59:21;;;;;;;29.20;16.35;;;;;;;5.29;100.00;101688.06;5079438;28;20043;-73
2022/02/09 04:01:46;;;;;;;27.88;16.23;;;;;;;5.27;100.00;101681.97;5069266;28;20039;-73
2022/02/09 04:04:12;;;;;;;25.80;16.13;;;;;;;5.29;100.00;101674.31;5082832;28;20035;-73
2022/02/09 04:06:39;;;;;;;29.00;16.52;;;;;;;5.27;100.00;101680.06;5071819;28;20032;-72
2022/02/09 04:09:08;;;;;;;27.33;14.65;;;;;;;5.30;100.00;101674.09;5103013;27;20027;-72
2022/02/09 04:11:53;;;;;;;27.75;15.57;;;;;;;5.30;100.00;101673.25;5098285;27;20032;-72
2022/02/09 04:43:35;;;;;;;27.38;14.95;;;;;;;5.32;100.00;101662.81;5086214;28;20043;-73
2022/02/09 04:52:12;;;;;;;24.65;14.63;;;;;;;5.34;100.00;101667.03;5102702;28;20059;-72
2022/02/09 04:56:58;;;;;;;26.67;15.73;;;;;;;5.33;100.00;101656.25;5111794;27;20034;-72
2022/02/09 04:59:36;;;;;;;27.48;14.88;;;;;;;5.32;100.00;101660.06;5112677;27;20725;-73
2022/02/09 05:02:38;;;;;;;26.55;15.95;;;;;;;5.33;100.00;101659.00;5101558;27;20118;-73
2022/02/09 05:24:21;;;;;;;33.13;17.45;;;;;;;5.30;100.00;101656.72;5100304;28;20041;-72
2022/02/09 05:27:02;;;;;;;32.75;17.95;;;;;;;5.31;100.00;101645.47;5100617;27;20114;-72
2022/02/09 05:29:28;;;;;;;38.05;18.58;;;;;;;5.27;100.00;101635.16;5082973;28;20031;-72
2022/02/09 05:31:53;;;;;;;34.50;17.63;;;;;;;5.26;100.00;101642.56;5072629;28;20048;-73
2022/02/09 05:34:19;;;;;;;33.63;18.05;;;;;;;5.24;100.00;101635.63;5071737;28;20454;-72
2022/02/09 05:36:44;;;;;;;35.40;18.23;;;;;;;5.22;100.00;101640.50;5076281;28;20044;-72
2022/02/09 05:39:10;;;;;;;45.20;21.13;;;;;;;5.21;100.00;101627.78;5073602;28;20016;-73
2022/02/09 05:41:42;;;;;;;35.55;19.38;;;;;;;5.18;100.00;101623.59;5058672;28;20036;-73
2022/02/09 05:44:08;;;;;;;45.63;21.27;;;;;;;5.17;100.00;101623.84;5066808;28;20043;-72
2022/02/09 05:52:05;;;;;;;43.05;21.00;;;;;;;5.09;100.00;101616.72;5081642;28;20035;-73
2022/02/09 05:54:58;;;;;;;;;;;;;;;5.10;100.00;101615.66;5082561;28;20035;-72
2022/02/09 05:59:48;;;;;;;46.72;21.88;;;;;;;5.07;100.00;101610.59;5100868;28;20031;-73
2022/02/09 06:02:16;;;;;;;48.92;23.23;;;;;;;5.06;100.00;101612.50;5071384;28;20028;-73
2022/02/09 06:04:41;;;;;;;46.80;22.30;;;;;;;5.01;100.00;101604.09;5073769;28;20040;-72
2022/02/09 06:07:07;;;;;;;45.63;21.83;;;;;;;5.05;100.00;101610.84;5059648;28;20508;-72
2022/02/09 06:09:32;;;;;;;44.88;21.33;;;;;;;5.04;100.00;101605.53;5052478;28;20032;-72
2022/02/09 06:12:11;;;;;;;47.17;22.45;;;;;;;5.01;100.00;101604.09;5073441;28;20032;-73
2022/02/09 06:20:08;;;;;;;45.78;22.15;;;;;;;5.02;100.00;101597.53;5072629;28;20172;-73
2022/02/09 06:22:34;;;;;;;40.20;20.30;;;;;;;5.04;100.00;101603.66;5096585;28;20062;-73
2022/02/09 06:24:59;;;;;;;40.70;20.80;;;;;;;5.05;100.00;101605.34;5076936;28;20024;-73
2022/02/09 06:27:25;;;;;;;42.40;19.88;;;;;;;5.07;100.00;101605.09;5071820;28;20120;-73
2022/02/09 06:29:50;;;;;;;40.00;18.35;;;;;;;5.10;100.00;101601.91;5096507;28;20036;-73
2022/02/09 06:32:17;;;;;;;36.10;18.10;;;;;;;5.11;100.00;101614.59;5095817;28;20040;-73
2022/02/09 06:34:44;;;;;;;33.00;16.92;;;;;;;5.10;100.00;101608.25;5098427;27;20034;-73
2022/02/09 06:37:23;;;;;;;41.05;18.15;;;;;;;5.10;100.00;101618.41;5120680;27;20093;-73
2022/02/09 06:39:56;;;;;;;35.25;17.73;;;;;;;5.09;100.00;101616.72;5107269;27;20035;-73
2022/02/09 06:42:23;;;;;;;31.58;16.02;;;;;;;5.09;100.00;101614.81;5111368;27;20027;-73
2022/02/09 06:44:52;;;;;;;29.25;15.20;;;;;;;5.11;100.00;101618.16;5081095;28;20032;-73
2022/02/09 06:47:22;;;;;;;29.23;16.25;;;;;;;5.13;100.00;101618.78;5088925;27;20042;-73
2022/02/09 06:49:56;;;;;;;30.65;15.75;;;;;;;5.14;100.00;101614.13;5086229;27;20445;-73
2022/02/09 06:52:21;;;;;;;30.50;16.38;;;;;;;5.16;100.00;101620.25;5118568;27;20360;-73
2022/02/09 06:55:06;;;;;;;30.63;16.05;;;;;;;5.12;100.00;101633.59;5119215;27;20080;-73
2022/02/09 06:57:45;;;;;;;29.48;14.13;;;;;;;5.13;100.00;101629.81;5124109;27;20019;-73
2022/02/09 07:00:11;;;;;;;27.20;14.30;;;;;;;5.14;100.00;101636.16;5089861;27;20072;-73
2022/02/09 07:02:40;;;;;;;27.40;14.20;;;;;;;5.17;100.00;101632.94;5104430;27;20050;-72
2022/02/09 07:05:10;;;;;;;24.25;13.82;;;;;;;5.18;100.00;101634.59;5100445;27;20043;-73
2022/02/09 07:07:35;;;;;;;27.95;14.32;;;;;;;5.21;100.00;101638.81;5104904;27;20072;-73
2022/02/09 07:10:01;;;;;;;29.00;14.02;;;;;;;5.22;100.00;101640.50;5117020;27;20024;-73
2022/02/09 07:12:27;;;;;;;29.65;14.73;;;;;;;5.21;100.00;101636.06;5110608;27;20039;-73
2022/02/09 07:14:54;;;;;;;24.70;13.35;;;;;;;5.21;100.00;101642.44;5109248;27;20038;-73
2022/02/09 07:17:19;;;;;;;25.13;13.68;;;;;;;5.21;100.00;101641.56;5100449;27;20544;-73
2022/02/09 07:19:52;;;;;;;24.50;12.85;;;;;;;5.22;100.00;101643.25;5100289;27;20038;-73
2022/02/09 07:22:24;;;;;;;24.45;12.75;;;;;;;5.21;100.00;101633.31;5102055;27;20535;-72
2022/02/09 07:24:51;;;;;;;22.15;11.93;;;;;;;5.21;100.00;101630.53;5109970;27;20052;-73
2022/02/09 07:27:27;;;;;;;23.70;12.85;;;;;;;5.23;100.00;101628.41;5082537;27;20088;-73
2022/02/09 07:29:53;;;;;;;23.52;12.65;;;;;;;5.20;100.00;101618.69;5090902;28;20027;-73
2022/02/09 07:32:18;;;;;;;24.60;13.07;;;;;;;5.21;100.00;101627.78;5113583;27;20046;-74
2022/02/09 07:34:44;;;;;;;26.52;13.38;;;;;;;5.20;100.00;101632.47;5087360;27;20122;-74
2022/02/09 07:37:09;;;;;;;23.15;12.82;;;;;;;5.20;100.00;101632.47;5091279;28;20062;-74
2022/02/09 07:39:35;;;;;;;26.30;13.68;;;;;;;5.21;100.00;101627.78;5091711;28;20031;-77
2022/02/09 07:42:09;;;;;;;33.88;16.92;;;;;;;5.17;100.00;101624.66;5076207;27;20059;-78
2022/02/09 07:44:54;;;;;;;30.60;15.82;;;;;;;5.14;100.00;101620.47;5085915;27;20059;-77
2022/02/09 07:47:38;;;;;;;34.60;17.02;;;;;;;5.13;100.00;101631.72;5104943;27;20047;-77
2022/02/09 07:50:29;;;;;;;31.05;15.45;;;;;;;5.12;100.00;101628.09;5120070;27;20051;-78
2022/02/09 07:53:01;;;;;;;29.75;14.95;;;;;;;5.12;100.00;101622.59;5103388;27;20042;-78
2022/02/09 07:55:26;;;;;;;30.95;15.45;;;;;;;5.13;100.00;101629.81;5100741;27;20038;-77
2022/02/09 07:57:52;;;;;;;31.35;14.23;;;;;;;5.12;100.00;101630.03;5118875;27;20023;-77
2022/02/09 08:00:18;;;;;;;28.92;14.27;;;;;;;5.15;100.00;101635.94;5132511;27;20425;-77
2022/02/09 08:02:46;;;;;;;28.20;14.18;;;;;;;5.15;100.00;101635.94;5099741;27;20437;-77
2022/02/09 08:05:12;;;;;;;27.13;13.63;;;;;;;5.17;100.00;101638.44;5096960;28;20027;-78
2022/02/09 08:07:37;;;;;;;26.42;13.63;;;;;;;5.15;100.00;101637.81;5105847;28;20035;-77
2022/02/09 08:10:13;;;;;;;31.58;14.63;;;;;;;5.15;100.00;101637.81;5120631;27;20383;-77
2022/02/09 08:33:41;;;;;;;36.70;18.02;;;;;;;5.01;100.00;101647.31;5114073;27;20450;-77
2022/02/09 08:36:06;;;;;;;40.22;18.10;;;;;;;5.01;100.00;101647.31;5100238;27;20113;-78
2022/02/09 08:38:32;;;;;;;34.08;17.05;;;;;;;5.03;100.00;101645.19;5137154;27;20019;-78
2022/02/09 08:40:57;;;;;;;39.47;18.23;;;;;;;5.02;100.00;101641.59;5114908;27;20388;-77
2022/02/09 08:43:23;;;;;;;34.78;17.02;;;;;;;5.04;100.00;101644.97;5094020;27;20080;-77
2022/02/09 08:45:49;;;;;;;37.70;17.35;;;;;;;5.05;100.00;101632.88;5090229;28;20034;-77
2022/02/09 08:48:15;;;;;;;33.83;16.75;;;;;;;5.03;100.00;101634.16;5109518;28;20032;-77
2022/02/09 08:50:41;;;;;;;31.95;15.50;;;;;;;5.05;100.00;101638.38;5131885;27;20035;-77
2022/02/09 08:53:06;;;;;;;37.63;18.50;;;;;;;5.02;100.00;101641.59;5132942;27;20022;-77
2022/02/09 08:55:34;;;;;;;34.05;17.83;;;;;;;5.04;100.00;101631.19;5119209;27;20031;-77
2022/02/09 08:58:00;;;;;;;33.95;16.35;;;;;;;5.06;100.00;101640.03;5112667;28;20030;-77
2022/02/09 09:00:29;;;;;;;38.40;16.55;;;;;;;5.05;100.00;101627.34;5129617;27;20035;-77
2022/02/09 09:05:50;;;;;;;30.88;16.15;;;;;;;5.11;100.00;101625.59;5117452;27;20442;-77
2022/02/09 09:25:07;;;;;;;31.23;16.38;;;;;;;5.10;100.00;101633.03;5109051;27;20449;-77
2022/02/09 09:58:08;;;;;;;33.33;17.38;;;;;;;5.50;100.00;101615.97;5030596;28;20045;-77
2022/02/09 10:31:04;;;;;;;35.22;17.27;;;;;;;5.72;100.00;101601.66;5093428;28;19907;-76
2022/02/09 10:33:30;;;;;;;35.05;17.77;;;;;;;5.71;100.00;101599.97;5098478;28;20035;-77
2022/02/09 10:36:15;;;;;;;42.50;19.35;;;;;;;5.74;100.00;101605.88;5114288;28;20056;-75
2022/02/09 10:38:43;;;;;;;35.72;17.35;;;;;;;5.80;100.00;101604.09;5096695;28;20506;-71
2022/02/09 10:41:19;;;;;;;36.45;18.60;;;;;;;5.78;100.00;101593.28;5096981;28;20050;-71
2022/02/09 10:43:46;;;;;;;38.80;18.48;;;;;;;5.79;100.00;101599.63;5094499;28;20036;-70
2022/02/09 10:46:17;;;;;;;32.40;16.10;;;;;;;5.81;100.00;101597.50;5040944;28;20036;-73
2022/02/09 10:49:01;;;;;;;31.45;16.65;;;;;;;5.80;100.00;101601.34;5061849;28;20039;-74
2022/02/09 10:54:25;;;;;;;31.75;15.80;;;;;;;5.82;100.00;101596.41;5097329;28;20176;-74
2022/02/09 10:56:51;;;;;;;32.22;15.32;;;;;;;5.84;100.00;101597.03;5061748;28;20032;-74
2022/02/09 10:59:21;;;;;;;29.40;15.38;;;;;;;5.79;100.00;101583.09;5090590;28;20028;-74
2022/02/09 11:01:47;;;;;;;30.27;15.50;;;;;;;5.82;100.00;101596.41;5079009;28;20024;-73
2022/02/09 11:04:13;;;;;;;31.20;15.75;;;;;;;5.82;100.00;101593.66;5075050;28;20031;-74
2022/02/09 11:06:41;;;;;;;30.00;15.60;;;;;;;5.85;100.00;101598.72;5041452;28;20036;-74
2022/02/09 11:09:08;;;;;;;26.80;13.65;;;;;;;5.87;100.00;101596.53;5070266;28;20034;-74
2022/02/09 11:11:37;;;;;;;29.38;14.50;;;;;;;5.86;100.00;101592.13;5058064;28;20524;-73
2022/02/09 11:14:03;;;;;;;26.08;14.15;;;;;;;5.84;100.00;101588.75;5047526;28;20040;-72
2022/02/09 11:16:30;;;;;;;21.85;13.55;;;;;;;5.88;100.00;101592.72;5073468;28;20059;-72
2022/02/09 11:18:57;;;;;;;24.50;13.90;;;;;;;5.94;100.00;101596.50;5067663;28;20027;-72
2022/02/09 11:21:28;;;;;;;24.17;13.65;;;;;;;5.95;100.00;101590.72;5072871;28;20043;-72
2022/02/09 11:23:56;;;;;;;25.27;13.32;;;;;;;6.00;100.00;101588.09;5088941;28;20028;-72
2022/02/09 11:34:48;;;;;;;25.10;13.70;;;;;;;6.23;100.00;101578.16;5129970;27;20051;-72
2022/02/09 11:37:22;;;;;;;24.73;14.15;;;;;;;6.28;100.00;101569.19;5111627;27;20038;-73
2022/02/09 11:39:51;;;;;;;22.05;12.10;;;;;;;6.25;100.00;101571.34;5081319;27;20035;-72
2022/02/09 11:42:37;;;;;;;23.77;13.35;;;;;;;6.28;100.00;101566.44;5099651;27;20043;-72
2022/02/09 11:45:24;;;;;;;24.67;12.70;;;;;;;6.28;100.00;101564.50;5103307;27;20031;-72
2022/02/09 11:58:43;;;;;;;24.92;12.38;;;;;;;6.34;100.00;101540.63;5087076;27;20032;-72
2022/02/09 12:01:23;;;;;;;24.35;12.82;;;;;;;6.34;100.00;101538.69;5107134;27;20046;-72
2022/02/09 12:09:42;;;;;;;26.45;13.25;;;;;;;6.48;100.00;101548.41;5134042;27;20035;-72
2022/02/09 12:12:12;;;;;;;25.15;13.23;;;;;;;6.53;100.00;101539.41;5109879;27;20041;-73
2022/02/09 12:17:48;;;;;;;27.90;13.73;;;;;;;6.58;100.00;101534.00;5097650;27;20035;-72
2022/02/09 12:20:26;;;;;;;24.33;12.80;;;;;;;6.65;100.00;101531.09;5103176;27;20063;-72
2022/02/09 12:23:28;;;;;;;27.52;12.57;;;;;;;6.69;100.00;101533.16;5123253;27;20035;-72
2022/02/09 12:25:54;;;;;;;25.83;13.77;;;;;;;6.76;100.00;101523.88;5114551;27;20119;-72
2022/02/09 12:28:36;;;;;;;26.58;13.75;;;;;;;6.80;100.00;101512.13;5119662;27;20035;-72
2022/02/09 12:31:13;;;;;;;27.27;13.70;;;;;;;6.87;100.00;101515.56;5108613;28;20023;-73
2022/02/09 12:33:43;;;;;;;26.15;14.63;;;;;;;6.90;100.00;101506.78;5072655;28;20388;-72
2022/02/09 12:36:15;;;;;;;25.88;13.43;;;;;;;6.87;100.00;101503.69;5052802;28;20119;-72
2022/02/09 12:38:41;;;;;;;27.27;14.15;;;;;;;6.89;100.00;101491.31;5063363;28;20035;-72
2022/02/09 12:41:18;;;;;;;25.05;14.25;;;;;;;6.92;100.00;101488.06;5065938;28;20023;-72
2022/02/09 12:43:48;;;;;;;26.33;13.57;;;;;;;6.92;100.00;101492.75;5046215;28;20090;-72
2022/02/09 12:46:14;;;;;;;25.90;14.05;;;;;;;6.93;100.00;101494.41;5086438;28;20028;-72
2022/02/09 12:48:39;;;;;;;23.80;14.32;;;;;;;6.98;100.00;101488.16;5067912;28;20031;-72
2022/02/09 12:51:05;;;;;;;28.80;14.95;;;;;;;6.93;100.00;101494.41;5054316;28;20036;-73
2022/02/09 12:53:31;;;;;;;24.88;13.15;;;;;;;6.96;100.00;101495.84;5050509;28;20476;-72
2022/02/09 12:55:57;;;;;;;28.17;14.05;;;;;;;6.93;100.00;101492.47;5055392;28;20047;-72
2022/02/09 12:58:23;;;;;;;26.27;14.40;;;;;;;6.93;100.00;101478.66;5047446;28;20055;-72
2022/02/09 13:00:48;;;;;;;26.52;14.15;;;;;;;7.00;100.00;101472.19;5056379;28;20494;-72
2022/02/09 13:03:19;;;;;;;27.70;14.55;;;;;;;7.04;100.00;101474.19;5060058;28;20027;-72
2022/02/09 13:05:48;;;;;;;26.23;14.57;;;;;;;7.07;100.00;101465.41;5052652;28;20062;-72
2022/02/09 13:08:18;;;;;;;25.88;14.27;;;;;;;7.08;100.00;101466.25;5060601;28;20035;-72
2022/02/09 13:10:43;;;;;;;25.63;13.95;;;;;;;7.13;100.00;101458.91;5064740;28;20566;-72
2022/02/09 13:13:18;;;;;;;23.80;13.27;;;;;;;7.19;100.00;101454.31;5084617;28;20051;-72
2022/02/09 13:15:51;;;;;;;24.63;13.57;;;;;;;7.25;100.00;101453.31;5068673;28;20504;-72
2022/02/09 13:18:37;;;;;;;24.23;13.65;;;;;;;7.27;100.00;101442.88;5077847;28;20024;-72
2022/02/09 14:06:45;;;;;;;25.38;13.70;;;;;;;7.48;100.00;101434.91;5078959;28;20078;-72
2022/02/09 14:14:52;;;;;;;25.77;13.15;;;;;;;7.53;100.00;101441.34;5089074;28;20445;-72
2022/02/09 14:52:12;;;;;;;24.38;13.55;;;;;;;7.45;100.00;101421.59;5091101;28;20553;-73
2022/02/09 14:54:45;;;;;;;22.42;13.52;;;;;;;7.47;100.00;101427.72;5062479;27;20039;-72
2022/02/09 14:57:16;;;;;;;;;;;;;;;7.47;100.00;101423.03;5069339;28;20039;-72
2022/02/09 15:02:12;;;;;;;20.90;12.35;;;;;;;7.46;100.00;101415.81;5083071;28;20027;-72
2022/02/09 15:07:29;;;;;;;19.85;11.68;;;;;;;7.46;100.00;101423.25;5085745;27;20065;-72
2022/02/09 15:10:19;;;;;;;19.25;11.63;;;;;;;7.45;100.00;101416.91;5089095;28;20457;-72
2022/02/09 15:13:29;;;;;;;22.05;12.43;;;;;;;7.44;100.00;101414.38;5089425;28;20046;-72
2022/02/09 15:15:49;;;;;;;22.33;11.75;;;;;;;7.44;100.00;101422.66;5089530;28;20499;-72
2022/02/09 15:21:59;;;;;;;21.80;12.32;;;;;;;7.42;100.00;101422.94;5049560;28;20111;-72
2022/02/09 15:23:57;;;;;;;21.27;11.93;;;;;;;7.40;100.00;101422.34;5083845;28;20099;-72
2022/02/09 15:26:22;;;;;;;21.95;12.65;;;;;;;7.38;100.00;101416.22;5068034;28;20081;-72
2022/02/09 15:28:50;;;;;;;22.52;12.27;;;;;;;7.37;100.00;101415.38;5088214;28;20089;-72
2022/02/09 15:31:23;;;;;;;21.33;11.95;;;;;;;7.35;100.00;101417.59;5064475;28;20040;-73
2022/02/09 15:34:00;;;;;;;22.38;12.77;;;;;;;7.26;100.00;101426.53;5067249;28;20035;-72
2022/02/09 15:36:44;;;;;;;18.75;12.50;;;;;;;7.20;100.00;101427.53;5054576;28;20036;-72
2022/02/09 15:39:10;;;;;;;22.17;13.35;;;;;;;7.14;100.00;101415.53;5052463;28;20024;-73
2022/02/09 15:41:55;;;;;;;21.02;12.85;;;;;;;7.15;100.00;101412.50;5050581;28;20047;-72
2022/02/09 16:05:45;;;;;;;24.65;13.77;;;;;;;6.77;100.00;101401.31;5078325;28;20106;-72
2022/02/09 16:08:42;;;;;;;22.67;13.02;;;;;;;6.81;100.00;101403.34;5057667;28;20396;-72
2022/02/09 16:24:03;;;;;;;21.80;11.65;;;;;;;6.80;100.00;101379.59;5075863;28;20035;-72
2022/02/09 16:45:25;;;;;;;22.92;10.57;;;;;;;6.78;100.00;101359.66;5078726;28;20042;-72
2022/02/09 16:48:03;;;;;;;16.67;10.80;;;;;;;6.78;100.00;101358.84;5074501;28;20052;-72
2022/02/09 16:50:47;;;;;;;18.10;11.20;;;;;;;6.77;100.00;101357.13;5060917;28;20036;-73
2022/02/09 16:53:32;;;;;;;17.42;11.15;;;;;;;6.75;100.00;101351.03;5069633;28;20082;-72
2022/02/09 17:19:58;;;;;;;21.90;13.02;;;;;;;6.58;100.00;101351.84;5062006;28;20039;-72
2022/02/09 17:22:23;;;;;;;23.30;12.43;;;;;;;6.56;100.00;101348.47;5073161;28;20500;-73
2022/02/09 17:24:49;;;;;;;23.17;12.88;;;;;;;6.53;100.00;101353.66;5088770;28;20032;-73
2022/02/09 17:27:19;;;;;;;19.35;12.02;;;;;;;6.51;100.00;101347.53;5056010;28;20043;-73
2022/02/09 17:32:43;;;;;;;23.15;13.23;;;;;;;6.46;100.00;101338.09;5071078;28;20043;-74
2022/02/09 17:35:30;;;;;;;;;;;;;;;6.45;100.00;101338.34;5095948;28;20084;-73
2022/02/09 17:54:12;;;;;;;26.67;14.77;;;;;;;6.29;100.00;101362.00;5091115;27;20027;-73
2022/02/09 17:56:48;;;;;;;26.10;14.63;;;;;;;6.26;100.00;101365.25;5079835;28;20046;-73
2022/02/09 17:59:19;;;;;;;25.75;15.10;;;;;;;6.24;100.00;101365.53;5082897;28;20027;-73
2022/02/09 18:01:45;;;;;;;27.63;15.93;;;;;;;6.22;100.00;101367.69;5057043;28;20370;-73
2022/02/09 18:04:10;;;;;;;26.92;17.33;;;;;;;6.20;100.00;101361.56;5071620;28;20051;-74
2022/02/09 18:06:41;;;;;;;29.58;16.30;;;;;;;6.21;100.00;101356.88;5074856;27;20076;-74
2022/02/09 18:09:12;;;;;;;28.73;15.32;;;;;;;6.15;100.00;101366.97;5090065;28;20035;-74
2022/02/09 18:12:02;;;;;;;24.45;15.25;;;;;;;6.16;100.00;101362.31;5096140;28;20031;-74
2022/02/09 18:25:19;;;;;;;30.10;16.33;;;;;;;6.07;100.00;101374.78;5081954;28;20036;-74
2022/02/09 18:33:11;;;;;;;31.63;17.83;;;;;;;6.06;100.00;101375.88;5079543;28;20135;-73
2022/02/09 18:59:58;;;;;;;32.10;18.92;;;;;;;5.90;100.00;101350.69;5081644;28;20031;-75
2022/02/09 19:04:58;;;;;;;33.45;20.05;;;;;;;5.88;100.00;101350.13;5078605;28;20537;-76
2022/02/09 19:31:35;;;;;;;46.92;24.38;;;;;;;5.80;100.00;101358.75;5080010;28;20059;-75
2022/02/09 19:48:06;;;;;;;41.42;24.00;;;;;;;5.76;100.00;101363.06;5073744;28;20032;-74
2022/02/09 19:55:53;;;;;;;45.47;24.77;;;;;;;5.71;100.00;101374.81;5062422;28;20045;-74
2022/02/09 19:58:21;;;;;;;48.60;26.30;;;;;;;5.72;100.00;101372.91;5052631;28;20032;-72
2022/02/09 20:00:47;;;;;;;46.83;25.55;;;;;;;5.72;100.00;101372.91;5049954;28;20036;-79
2022/02/09 20:03:13;;;;;;;51.13;27.75;;;;;;;5.70;100.00;101394.34;5057791;28;20081;-78
2022/02/09 20:05:38;;;;;;;55.08;28.05;;;;;;;5.69;100.00;101389.91;5045849;28;20040;-78
2022/02/09 20:08:06;;;;;;;45.20;26.15;;;;;;;5.67;100.00;101397.59;5061453;28;20560;-78
2022/02/09 20:10:32;;;;;;;48.80;26.80;;;;;;;5.68;100.00;101399.25;5090118;28;20027;-78
2022/02/09 20:12:58;;;;;;;50.35;26.08;;;;;;;5.69;100.00;101406.47;5078165;28;20118;-78
2022/02/09 20:15:23;;;;;;;45.55;25.98;;;;;;;5.68;100.00;101410.28;5093402;28;20047;-77
2022/02/09 20:17:49;;;;;;;49.53;25.70;;;;;;;5.67;100.00;101401.16;5047700;28;20032;-79
2022/02/09 20:20:23;;;;;;;45.72;25.08;;;;;;;5.67;100.00;101403.09;5093938;28;20024;-78
2022/02/09 20:22:49;;;;;;;48.72;26.38;;;;;;;5.66;100.00;101405.00;5076476;28;20047;-78
2022/02/09 20:25:17;;;;;;;47.55;26.73;;;;;;;5.65;100.00;101408.84;5080886;28;20088;-78
2022/02/09 20:27:43;;;;;;;45.42;26.00;;;;;;;5.64;100.00;101409.09;5089873;28;20043;-78
2022/02/09 20:30:12;;;;;;;45.38;26.35;;;;;;;5.65;100.00;101410.75;5080288;28;20488;-78
2022/02/09 20:32:44;;;;;;;46.13;24.88;;;;;;;5.64;100.00;101398.06;5084895;28;20057;-78
2022/02/09 20:35:12;;;;;;;41.88;24.95;;;;;;;5.63;100.00;101399.13;5054476;28;20027;-78
2022/02/09 20:37:43;;;;;;;44.85;26.15;;;;;;;5.62;100.00;101400.22;5077304;28;20519;-78
2022/02/09 20:40:15;;;;;;;43.22;24.17;;;;;;;5.62;100.00;101405.72;5065934;28;20058;-73
2022/02/09 20:42:50;;;;;;;42.00;24.13;;;;;;;5.62;100.00;101402.97;5112728;28;20043;-73
2022/02/09 20:45:24;;;;;;;43.45;24.98;;;;;;;5.60;100.00;101404.06;5115716;28;20710;-73
2022/02/09 20:47:56;;;;;;;43.75;25.13;;;;;;;5.59;100.00;101402.34;5097267;28;20030;-73
2022/02/09 20:50:22;;;;;;;37.65;23.65;;;;;;;5.59;100.00;101405.13;5081200;28;20028;-72
2022/02/09 20:52:47;;;;;;;42.55;25.40;;;;;;;5.58;100.00;101395.19;5096858;28;20035;-72
2022/02/09 20:55:13;;;;;;;45.08;24.70;;;;;;;5.59;100.00;101398.78;5083348;28;20024;-73
2022/02/09 20:57:39;;;;;;;44.95;24.83;;;;;;;5.58;100.00;101399.88;5078129;28;20031;-72
2022/02/09 21:00:12;;;;;;;44.67;25.83;;;;;;;5.59;100.00;101398.78;5113378;27;20031;-73
2022/02/09 21:05:47;;;;;;;44.22;25.17;;;;;;;5.57;100.00;101395.41;5093213;28;20043;-73
2022/02/09 21:08:24;;;;;;;42.05;23.88;;;;;;;5.56;100.00;101391.81;5106473;28;20089;-72
2022/02/09 21:13:29;;;;;;;39.45;23.80;;;;;;;5.55;100.00;101390.16;5089367;28;20042;-72
2022/02/09 21:16:11;;;;;;;38.33;24.45;;;;;;;5.54;100.00;101387.63;5087425;28;20381;-72
2022/02/09 21:43:34;;;;;;;38.25;22.25;;;;;;;5.47;100.00;101382.25;5083649;28;20477;-72
2022/02/09 21:53:08;;;;;;;37.83;21.95;;;;;;;5.45;100.00;101378.88;5068536;28;20036;-72
2022/02/09 22:07:02;;;;;;;38.17;20.77;;;;;;;5.40;100.00;101369.66;5076516;28;20035;-73
2022/02/09 22:20:37;;;;;;;37.45;20.35;;;;;;;5.33;100.00;101367.03;5073118;28;20032;-72
2022/02/09 22:28:32;;;;;;;37.33;20.42;;;;;;;5.26;100.00;101358.84;5070395;28;20096;-72
2022/02/09 22:54:56;;;;;;;34.55;18.85;;;;;;;5.14;100.00;101330.47;5097232;28;20032;-72
2022/02/09 22:57:37;;;;;;;35.78;19.45;;;;;;;5.13;100.00;101326.91;5076760;28;20036;-72
2022/02/09 23:00:14;;;;;;;40.95;20.75;;;;;;;5.13;100.00;101328.81;5099679;28;20038;-72
2022/02/09 23:02:43;;;;;;;35.28;19.05;;;;;;;5.13;100.00;101331.56;5092190;28;20085;-72
2022/02/09 23:13:26;;;;;;;38.35;20.20;;;;;;;5.04;100.00;101336.59;5124078;27;20031;-72
2022/02/09 23:56:48;;;;;;;46.30;23.63;;;;;;;4.82;100.00;101333.56;5090575;27;20032;-73
